sensor_id;sensor_type;location;lat;lon;timestamp;temperature;humidity
48551;DHT22;34397;51.176;6.738;2023-08-31T00:00:05;13.90;76.00
48551;DHT22;34397;51.176;6.738;2023-08-31T00:02:39;13.90;76.00
48551;DHT22;34397;51.176;6.738;2023-08-31T00:05:13;13.80;76.40
48551;DHT22;34397;51.176;6.738;2023-08-31T00:07:45;13.80;76.90
48551;DHT22;34397;51.176;6.738;2023-08-31T00:10:16;13.80;76.50
48551;DHT22;34397;51.176;6.738;2023-08-31T00:12:48;13.80;75.80
48551;DHT22;34397;51.176;6.738;2023-08-31T00:15:20;13.70;75.70
48551;DHT22;34397;51.176;6.738;2023-08-31T00:17:52;13.70;75.20
48551;DHT22;34397;51.176;6.738;2023-08-31T00:20:25;13.70;75.80
48551;DHT22;34397;51.176;6.738;2023-08-31T00:22:57;13.70;75.90
48551;DHT22;34397;51.176;6.738;2023-08-31T00:25:29;13.70;76.50
48551;DHT22;34397;51.176;6.738;2023-08-31T00:28:01;13.60;76.10
48551;DHT22;34397;51.176;6.738;2023-08-31T00:30:35;13.60;75.60
48551;DHT22;34397;51.176;6.738;2023-08-31T00:33:07;13.60;76.00
48551;DHT22;34397;51.176;6.738;2023-08-31T00:35:40;13.60;75.90
48551;DHT22;34397;51.176;6.738;2023-08-31T00:38:14;13.50;75.70
48551;DHT22;34397;51.176;6.738;2023-08-31T00:40:46;13.50;76.00
48551;DHT22;34397;51.176;6.738;2023-08-31T00:43:18;13.50;75.90
48551;DHT22;34397;51.176;6.738;2023-08-31T00:45:50;13.40;75.80
48551;DHT22;34397;51.176;6.738;2023-08-31T00:48:25;13.40;76.30
48551;DHT22;34397;51.176;6.738;2023-08-31T00:50:58;13.40;76.60
48551;DHT22;34397;51.176;6.738;2023-08-31T00:53:31;13.40;76.40
48551;DHT22;34397;51.176;6.738;2023-08-31T00:56:03;13.30;76.50
48551;DHT22;34397;51.176;6.738;2023-08-31T00:58:36;13.30;76.60
48551;DHT22;34397;51.176;6.738;2023-08-31T01:01:10;13.30;76.80
48551;DHT22;34397;51.176;6.738;2023-08-31T01:03:46;13.30;76.80
48551;DHT22;34397;51.176;6.738;2023-08-31T01:06:24;13.30;77.00
48551;DHT22;34397;51.176;6.738;2023-08-31T01:09:02;13.30;77.00
48551;DHT22;34397;51.176;6.738;2023-08-31T01:11:43;13.30;76.80
48551;DHT22;34397;51.176;6.738;2023-08-31T01:14:19;13.30;76.80
48551;DHT22;34397;51.176;6.738;2023-08-31T01:16:57;13.30;76.90
48551;DHT22;34397;51.176;6.738;2023-08-31T01:19:32;13.30;76.90
48551;DHT22;34397;51.176;6.738;2023-08-31T01:22:13;13.20;76.90
48551;DHT22;34397;51.176;6.738;2023-08-31T01:24:49;13.30;77.10
48551;DHT22;34397;51.176;6.738;2023-08-31T01:27:21;13.20;76.90
48551;DHT22;34397;51.176;6.738;2023-08-31T01:29:54;13.20;77.20
48551;DHT22;34397;51.176;6.738;2023-08-31T01:32:28;13.20;77.20
48551;DHT22;34397;51.176;6.738;2023-08-31T01:35:00;13.20;76.90
48551;DHT22;34397;51.176;6.738;2023-08-31T01:37:36;13.20;77.00
48551;DHT22;34397;51.176;6.738;2023-08-31T01:40:18;13.10;76.20
48551;DHT22;34397;51.176;6.738;2023-08-31T01:42:51;13.10;76.30
48551;DHT22;34397;51.176;6.738;2023-08-31T01:45:24;13.10;76.10
48551;DHT22;34397;51.176;6.738;2023-08-31T01:47:56;13.10;76.70
48551;DHT22;34397;51.176;6.738;2023-08-31T01:50:29;13.00;76.80
48551;DHT22;34397;51.176;6.738;2023-08-31T01:53:00;13.00;76.50
48551;DHT22;34397;51.176;6.738;2023-08-31T01:55:33;13.00;76.00
48551;DHT22;34397;51.176;6.738;2023-08-31T01:58:05;12.90;75.60
48551;DHT22;34397;51.176;6.738;2023-08-31T02:00:37;12.90;76.20
48551;DHT22;34397;51.176;6.738;2023-08-31T02:03:12;12.90;76.40
48551;DHT22;34397;51.176;6.738;2023-08-31T02:05:43;12.90;76.50
48551;DHT22;34397;51.176;6.738;2023-08-31T02:08:15;12.80;76.50
48551;DHT22;34397;51.176;6.738;2023-08-31T02:10:49;12.90;76.70
48551;DHT22;34397;51.176;6.738;2023-08-31T02:13:21;12.80;76.50
48551;DHT22;34397;51.176;6.738;2023-08-31T02:15:56;12.90;76.80
48551;DHT22;34397;51.176;6.738;2023-08-31T02:18:27;12.80;76.30
48551;DHT22;34397;51.176;6.738;2023-08-31T02:21:00;12.80;76.60
48551;DHT22;34397;51.176;6.738;2023-08-31T02:23:31;12.80;76.00
48551;DHT22;34397;51.176;6.738;2023-08-31T02:26:05;12.80;76.00
48551;DHT22;34397;51.176;6.738;2023-08-31T02:28:37;12.80;75.90
48551;DHT22;34397;51.176;6.738;2023-08-31T02:31:09;12.70;76.40
48551;DHT22;34397;51.176;6.738;2023-08-31T02:33:42;12.70;75.80
48551;DHT22;34397;51.176;6.738;2023-08-31T02:36:13;12.70;76.20
48551;DHT22;34397;51.176;6.738;2023-08-31T02:38:45;12.60;75.70
48551;DHT22;34397;51.176;6.738;2023-08-31T02:41:19;12.60;76.80
48551;DHT22;34397;51.176;6.738;2023-08-31T02:43:50;12.60;75.90
48551;DHT22;34397;51.176;6.738;2023-08-31T02:46:22;12.60;76.60
48551;DHT22;34397;51.176;6.738;2023-08-31T02:48:57;12.60;76.00
48551;DHT22;34397;51.176;6.738;2023-08-31T02:51:29;12.50;76.30
48551;DHT22;34397;51.176;6.738;2023-08-31T02:54:01;12.50;76.40
48551;DHT22;34397;51.176;6.738;2023-08-31T02:56:35;12.50;76.80
48551;DHT22;34397;51.176;6.738;2023-08-31T02:59:06;12.50;76.80
48551;DHT22;34397;51.176;6.738;2023-08-31T03:01:39;12.50;76.60
48551;DHT22;34397;51.176;6.738;2023-08-31T03:04:11;12.50;76.40
48551;DHT22;34397;51.176;6.738;2023-08-31T03:06:43;12.40;76.30
48551;DHT22;34397;51.176;6.738;2023-08-31T03:09:18;12.40;76.50
48551;DHT22;34397;51.176;6.738;2023-08-31T03:11:54;12.40;76.30
48551;DHT22;34397;51.176;6.738;2023-08-31T03:14:28;12.30;76.40
48551;DHT22;34397;51.176;6.738;2023-08-31T03:16:59;12.30;76.60
48551;DHT22;34397;51.176;6.738;2023-08-31T03:19:31;12.30;76.60
48551;DHT22;34397;51.176;6.738;2023-08-31T03:22:03;12.30;76.60
48551;DHT22;34397;51.176;6.738;2023-08-31T03:24:35;12.30;76.40
48551;DHT22;34397;51.176;6.738;2023-08-31T03:27:11;12.30;76.40
48551;DHT22;34397;51.176;6.738;2023-08-31T03:29:46;12.20;76.90
48551;DHT22;34397;51.176;6.738;2023-08-31T03:32:18;12.20;77.20
48551;DHT22;34397;51.176;6.738;2023-08-31T03:34:51;12.20;76.90
48551;DHT22;34397;51.176;6.738;2023-08-31T03:37:22;12.20;76.60
48551;DHT22;34397;51.176;6.738;2023-08-31T03:39:54;12.20;77.00
48551;DHT22;34397;51.176;6.738;2023-08-31T03:42:27;12.20;77.00
48551;DHT22;34397;51.176;6.738;2023-08-31T03:44:59;12.10;77.00
48551;DHT22;34397;51.176;6.738;2023-08-31T03:47:31;12.10;77.10
48551;DHT22;34397;51.176;6.738;2023-08-31T03:50:03;12.20;77.10
48551;DHT22;34397;51.176;6.738;2023-08-31T03:52:35;12.10;77.30
48551;DHT22;34397;51.176;6.738;2023-08-31T03:55:09;12.10;77.30
48551;DHT22;34397;51.176;6.738;2023-08-31T03:57:42;12.10;77.20
48551;DHT22;34397;51.176;6.738;2023-08-31T04:00:17;12.10;77.40
48551;DHT22;34397;51.176;6.738;2023-08-31T04:02:49;12.10;77.30
48551;DHT22;34397;51.176;6.738;2023-08-31T04:05:21;12.10;77.50
48551;DHT22;34397;51.176;6.738;2023-08-31T04:07:56;12.10;78.20
48551;DHT22;34397;51.176;6.738;2023-08-31T04:10:27;12.10;77.50
48551;DHT22;34397;51.176;6.738;2023-08-31T04:13:01;12.10;77.70
48551;DHT22;34397;51.176;6.738;2023-08-31T04:15:33;12.10;77.50
48551;DHT22;34397;51.176;6.738;2023-08-31T04:18:05;12.10;77.70
48551;DHT22;34397;51.176;6.738;2023-08-31T04:20:45;12.10;77.60
48551;DHT22;34397;51.176;6.738;2023-08-31T04:23:19;12.10;78.30
48551;DHT22;34397;51.176;6.738;2023-08-31T04:25:51;12.10;77.90
48551;DHT22;34397;51.176;6.738;2023-08-31T04:28:25;12.10;77.90
48551;DHT22;34397;51.176;6.738;2023-08-31T04:30:57;12.10;77.90
48551;DHT22;34397;51.176;6.738;2023-08-31T04:33:43;12.10;78.00
48551;DHT22;34397;51.176;6.738;2023-08-31T04:36:17;12.00;78.00
48551;DHT22;34397;51.176;6.738;2023-08-31T04:38:56;12.00;78.10
48551;DHT22;34397;51.176;6.738;2023-08-31T04:41:31;12.10;78.30
48551;DHT22;34397;51.176;6.738;2023-08-31T04:44:05;12.00;78.20
48551;DHT22;34397;51.176;6.738;2023-08-31T04:46:42;12.00;78.30
48551;DHT22;34397;51.176;6.738;2023-08-31T04:49:14;12.00;78.40
48551;DHT22;34397;51.176;6.738;2023-08-31T04:51:55;12.00;78.30
48551;DHT22;34397;51.176;6.738;2023-08-31T04:54:30;12.00;78.40
48551;DHT22;34397;51.176;6.738;2023-08-31T04:57:02;12.00;78.50
48551;DHT22;34397;51.176;6.738;2023-08-31T04:59:40;12.00;78.50
48551;DHT22;34397;51.176;6.738;2023-08-31T05:02:13;12.10;78.60
48551;DHT22;34397;51.176;6.738;2023-08-31T05:04:47;12.00;78.50
48551;DHT22;34397;51.176;6.738;2023-08-31T05:07:23;12.00;78.60
48551;DHT22;34397;51.176;6.738;2023-08-31T05:09:58;12.00;78.70
48551;DHT22;34397;51.176;6.738;2023-08-31T05:12:41;12.00;78.80
48551;DHT22;34397;51.176;6.738;2023-08-31T05:15:26;12.00;78.70
48551;DHT22;34397;51.176;6.738;2023-08-31T05:18:00;12.00;78.80
48551;DHT22;34397;51.176;6.738;2023-08-31T05:20:33;12.00;78.80
48551;DHT22;34397;51.176;6.738;2023-08-31T05:23:05;12.00;78.90
48551;DHT22;34397;51.176;6.738;2023-08-31T05:25:41;12.00;79.20
48551;DHT22;34397;51.176;6.738;2023-08-31T05:28:17;12.00;79.10
48551;DHT22;34397;51.176;6.738;2023-08-31T05:30:51;12.00;79.20
48551;DHT22;34397;51.176;6.738;2023-08-31T05:33:27;12.00;80.20
48551;DHT22;34397;51.176;6.738;2023-08-31T05:36:04;12.00;79.50
48551;DHT22;34397;51.176;6.738;2023-08-31T05:38:36;12.00;79.50
48551;DHT22;34397;51.176;6.738;2023-08-31T05:41:08;12.10;79.30
48551;DHT22;34397;51.176;6.738;2023-08-31T05:43:45;12.10;79.50
48551;DHT22;34397;51.176;6.738;2023-08-31T05:46:22;12.20;79.80
48551;DHT22;34397;51.176;6.738;2023-08-31T05:48:54;12.20;80.10
48551;DHT22;34397;51.176;6.738;2023-08-31T05:51:26;12.20;79.70
48551;DHT22;34397;51.176;6.738;2023-08-31T05:53:59;12.30;79.90
48551;DHT22;34397;51.176;6.738;2023-08-31T05:56:31;12.40;79.60
48551;DHT22;34397;51.176;6.738;2023-08-31T05:59:03;12.40;79.60
48551;DHT22;34397;51.176;6.738;2023-08-31T06:01:37;12.40;79.40
48551;DHT22;34397;51.176;6.738;2023-08-31T06:04:08;12.50;79.70
48551;DHT22;34397;51.176;6.738;2023-08-31T06:06:49;12.50;79.60
48551;DHT22;34397;51.176;6.738;2023-08-31T06:09:24;12.60;79.40
48551;DHT22;34397;51.176;6.738;2023-08-31T06:11:56;12.60;79.10
48551;DHT22;34397;51.176;6.738;2023-08-31T06:14:28;12.60;79.20
48551;DHT22;34397;51.176;6.738;2023-08-31T06:17:11;12.60;79.20
48551;DHT22;34397;51.176;6.738;2023-08-31T06:19:43;12.70;79.30
48551;DHT22;34397;51.176;6.738;2023-08-31T06:22:18;12.70;79.40
48551;DHT22;34397;51.176;6.738;2023-08-31T06:24:54;12.80;79.10
48551;DHT22;34397;51.176;6.738;2023-08-31T06:27:26;12.80;78.90
48551;DHT22;34397;51.176;6.738;2023-08-31T06:29:58;12.90;79.00
48551;DHT22;34397;51.176;6.738;2023-08-31T06:32:35;12.90;79.00
48551;DHT22;34397;51.176;6.738;2023-08-31T06:35:07;12.90;78.90
48551;DHT22;34397;51.176;6.738;2023-08-31T06:37:39;12.90;78.90
48551;DHT22;34397;51.176;6.738;2023-08-31T06:40:11;13.00;78.90
48551;DHT22;34397;51.176;6.738;2023-08-31T06:42:44;13.00;79.00
48551;DHT22;34397;51.176;6.738;2023-08-31T06:45:19;13.00;78.60
48551;DHT22;34397;51.176;6.738;2023-08-31T06:47:53;13.10;78.80
48551;DHT22;34397;51.176;6.738;2023-08-31T06:50:29;13.10;78.50
48551;DHT22;34397;51.176;6.738;2023-08-31T06:53:00;13.20;78.10
48551;DHT22;34397;51.176;6.738;2023-08-31T06:55:35;13.30;78.20
48551;DHT22;34397;51.176;6.738;2023-08-31T06:58:07;13.30;77.70
48551;DHT22;34397;51.176;6.738;2023-08-31T07:00:43;13.20;77.40
48551;DHT22;34397;51.176;6.738;2023-08-31T07:03:18;13.20;78.30
48551;DHT22;34397;51.176;6.738;2023-08-31T07:06:00;13.20;78.60
48551;DHT22;34397;51.176;6.738;2023-08-31T07:08:35;13.30;78.70
48551;DHT22;34397;51.176;6.738;2023-08-31T07:11:07;13.40;78.40
48551;DHT22;34397;51.176;6.738;2023-08-31T07:13:39;13.40;78.20
48551;DHT22;34397;51.176;6.738;2023-08-31T07:16:11;13.50;78.10
48551;DHT22;34397;51.176;6.738;2023-08-31T07:19:22;13.60;77.60
48551;DHT22;34397;51.176;6.738;2023-08-31T07:21:58;13.60;77.70
48551;DHT22;34397;51.176;6.738;2023-08-31T07:24:40;13.70;77.30
48551;DHT22;34397;51.176;6.738;2023-08-31T07:27:13;13.70;77.30
48551;DHT22;34397;51.176;6.738;2023-08-31T07:29:53;13.80;77.10
48551;DHT22;34397;51.176;6.738;2023-08-31T07:32:28;13.90;76.90
48551;DHT22;34397;51.176;6.738;2023-08-31T07:35:04;13.90;76.60
48551;DHT22;34397;51.176;6.738;2023-08-31T07:37:42;13.90;76.70
48551;DHT22;34397;51.176;6.738;2023-08-31T07:40:18;14.00;76.70
48551;DHT22;34397;51.176;6.738;2023-08-31T07:43:00;14.00;76.80
48551;DHT22;34397;51.176;6.738;2023-08-31T07:45:35;14.10;76.90
48551;DHT22;34397;51.176;6.738;2023-08-31T07:48:12;14.10;76.20
48551;DHT22;34397;51.176;6.738;2023-08-31T07:51:06;14.20;76.60
48551;DHT22;34397;51.176;6.738;2023-08-31T07:53:39;14.30;75.60
48551;DHT22;34397;51.176;6.738;2023-08-31T07:56:14;14.30;75.80
48551;DHT22;34397;51.176;6.738;2023-08-31T07:58:46;14.30;75.70
48551;DHT22;34397;51.176;6.738;2023-08-31T08:01:24;14.30;75.40
48551;DHT22;34397;51.176;6.738;2023-08-31T08:03:56;14.40;75.70
48551;DHT22;34397;51.176;6.738;2023-08-31T08:06:29;14.50;75.50
48551;DHT22;34397;51.176;6.738;2023-08-31T08:09:03;14.50;75.70
48551;DHT22;34397;51.176;6.738;2023-08-31T08:11:35;14.60;75.60
48551;DHT22;34397;51.176;6.738;2023-08-31T08:14:07;14.70;75.10
48551;DHT22;34397;51.176;6.738;2023-08-31T08:16:41;14.70;75.10
48551;DHT22;34397;51.176;6.738;2023-08-31T08:19:22;14.70;75.00
48551;DHT22;34397;51.176;6.738;2023-08-31T08:22:08;14.80;74.40
48551;DHT22;34397;51.176;6.738;2023-08-31T08:24:56;14.90;74.90
48551;DHT22;34397;51.176;6.738;2023-08-31T08:27:38;14.90;75.00
48551;DHT22;34397;51.176;6.738;2023-08-31T08:30:37;15.00;74.30
48551;DHT22;34397;51.176;6.738;2023-08-31T08:33:12;15.00;74.60
48551;DHT22;34397;51.176;6.738;2023-08-31T08:35:50;15.10;75.00
48551;DHT22;34397;51.176;6.738;2023-08-31T08:38:28;15.20;74.30
48551;DHT22;34397;51.176;6.738;2023-08-31T08:41:03;15.20;74.60
48551;DHT22;34397;51.176;6.738;2023-08-31T08:43:36;15.40;74.30
48551;DHT22;34397;51.176;6.738;2023-08-31T08:46:10;15.40;73.10
48551;DHT22;34397;51.176;6.738;2023-08-31T08:48:45;15.50;73.50
48551;DHT22;34397;51.176;6.738;2023-08-31T08:51:19;15.50;72.60
48551;DHT22;34397;51.176;6.738;2023-08-31T08:53:59;15.60;72.80
48551;DHT22;34397;51.176;6.738;2023-08-31T08:56:35;15.70;73.00
48551;DHT22;34397;51.176;6.738;2023-08-31T08:59:12;15.70;72.20
48551;DHT22;34397;51.176;6.738;2023-08-31T09:01:45;15.80;71.20
48551;DHT22;34397;51.176;6.738;2023-08-31T09:04:17;15.90;70.40
48551;DHT22;34397;51.176;6.738;2023-08-31T09:06:52;15.90;71.20
48551;DHT22;34397;51.176;6.738;2023-08-31T09:09:30;15.90;71.50
48551;DHT22;34397;51.176;6.738;2023-08-31T09:12:08;16.00;71.20
48551;DHT22;34397;51.176;6.738;2023-08-31T09:14:58;16.10;71.70
48551;DHT22;34397;51.176;6.738;2023-08-31T09:17:41;16.10;68.90
48551;DHT22;34397;51.176;6.738;2023-08-31T09:20:17;16.20;67.20
48551;DHT22;34397;51.176;6.738;2023-08-31T09:22:54;16.30;70.90
48551;DHT22;34397;51.176;6.738;2023-08-31T09:25:36;16.40;70.90
48551;DHT22;34397;51.176;6.738;2023-08-31T09:28:14;16.50;70.20
48551;DHT22;34397;51.176;6.738;2023-08-31T09:30:52;16.60;70.30
48551;DHT22;34397;51.176;6.738;2023-08-31T09:33:27;16.60;68.60
48551;DHT22;34397;51.176;6.738;2023-08-31T09:36:07;16.60;66.50
48551;DHT22;34397;51.176;6.738;2023-08-31T09:38:42;16.50;65.70
48551;DHT22;34397;51.176;6.738;2023-08-31T09:41:21;16.60;66.90
48551;DHT22;34397;51.176;6.738;2023-08-31T09:43:56;16.70;68.80
48551;DHT22;34397;51.176;6.738;2023-08-31T09:46:38;16.80;67.60
48551;DHT22;34397;51.176;6.738;2023-08-31T09:49:28;16.90;67.80
48551;DHT22;34397;51.176;6.738;2023-08-31T09:52:02;17.00;65.60
48551;DHT22;34397;51.176;6.738;2023-08-31T09:54:38;17.00;65.50
48551;DHT22;34397;51.176;6.738;2023-08-31T09:57:16;17.10;67.30
48551;DHT22;34397;51.176;6.738;2023-08-31T09:59:57;17.30;68.20
48551;DHT22;34397;51.176;6.738;2023-08-31T10:02:37;17.40;67.80
48551;DHT22;34397;51.176;6.738;2023-08-31T10:05:11;17.50;67.90
48551;DHT22;34397;51.176;6.738;2023-08-31T10:07:46;17.70;67.30
48551;DHT22;34397;51.176;6.738;2023-08-31T10:10:21;17.90;65.30
48551;DHT22;34397;51.176;6.738;2023-08-31T10:13:03;18.10;65.30
48551;DHT22;34397;51.176;6.738;2023-08-31T10:15:37;18.30;65.60
48551;DHT22;34397;51.176;6.738;2023-08-31T10:18:15;18.50;64.40
48551;DHT22;34397;51.176;6.738;2023-08-31T10:20:53;18.60;63.20
48551;DHT22;34397;51.176;6.738;2023-08-31T10:23:27;19.00;62.90
48551;DHT22;34397;51.176;6.738;2023-08-31T10:26:10;19.20;61.10
48551;DHT22;34397;51.176;6.738;2023-08-31T10:28:55;19.50;60.10
48551;DHT22;34397;51.176;6.738;2023-08-31T10:31:34;19.90;60.20
48551;DHT22;34397;51.176;6.738;2023-08-31T10:34:10;20.20;59.50
48551;DHT22;34397;51.176;6.738;2023-08-31T10:36:44;20.70;58.10
48551;DHT22;34397;51.176;6.738;2023-08-31T10:39:17;21.00;56.60
48551;DHT22;34397;51.176;6.738;2023-08-31T10:41:54;21.10;54.90
48551;DHT22;34397;51.176;6.738;2023-08-31T10:44:30;21.20;55.00
48551;DHT22;34397;51.176;6.738;2023-08-31T10:47:07;21.20;54.70
48551;DHT22;34397;51.176;6.738;2023-08-31T10:49:49;21.10;54.10
48551;DHT22;34397;51.176;6.738;2023-08-31T10:52:30;20.90;55.40
48551;DHT22;34397;51.176;6.738;2023-08-31T10:55:14;21.00;56.10
48551;DHT22;34397;51.176;6.738;2023-08-31T10:57:52;21.00;55.30
48551;DHT22;34397;51.176;6.738;2023-08-31T11:03:31;21.10;54.40
48551;DHT22;34397;51.176;6.738;2023-08-31T11:06:10;21.10;54.50
48551;DHT22;34397;51.176;6.738;2023-08-31T11:08:52;21.10;52.70
48551;DHT22;34397;51.176;6.738;2023-08-31T11:11:24;21.10;54.20
48551;DHT22;34397;51.176;6.738;2023-08-31T11:13:58;21.00;53.20
48551;DHT22;34397;51.176;6.738;2023-08-31T11:16:34;20.90;54.20
48551;DHT22;34397;51.176;6.738;2023-08-31T11:19:09;20.70;53.60
48551;DHT22;34397;51.176;6.738;2023-08-31T11:21:45;20.60;54.20
48551;DHT22;34397;51.176;6.738;2023-08-31T11:24:19;20.30;54.50
48551;DHT22;34397;51.176;6.738;2023-08-31T11:26:52;20.10;55.20
48551;DHT22;34397;51.176;6.738;2023-08-31T11:29:30;19.90;55.90
48551;DHT22;34397;51.176;6.738;2023-08-31T11:32:13;19.60;55.90
48551;DHT22;34397;51.176;6.738;2023-08-31T11:34:48;19.40;56.30
48551;DHT22;34397;51.176;6.738;2023-08-31T11:37:24;19.30;58.80
48551;DHT22;34397;51.176;6.738;2023-08-31T11:39:57;19.30;59.20
48551;DHT22;34397;51.176;6.738;2023-08-31T11:42:34;19.50;60.00
48551;DHT22;34397;51.176;6.738;2023-08-31T11:45:26;19.80;61.40
48551;DHT22;34397;51.176;6.738;2023-08-31T11:48:01;20.20;63.40
48551;DHT22;34397;51.176;6.738;2023-08-31T11:50:39;20.70;62.00
48551;DHT22;34397;51.176;6.738;2023-08-31T11:53:16;21.20;61.60
48551;DHT22;34397;51.176;6.738;2023-08-31T11:55:57;21.60;59.20
48551;DHT22;34397;51.176;6.738;2023-08-31T11:58:29;21.90;57.40
48551;DHT22;34397;51.176;6.738;2023-08-31T12:01:01;22.20;55.50
48551;DHT22;34397;51.176;6.738;2023-08-31T12:03:45;22.30;54.00
48551;DHT22;34397;51.176;6.738;2023-08-31T12:06:20;22.30;53.00
48551;DHT22;34397;51.176;6.738;2023-08-31T12:08:55;22.40;53.20
48551;DHT22;34397;51.176;6.738;2023-08-31T12:11:27;22.60;53.20
48551;DHT22;34397;51.176;6.738;2023-08-31T12:13:59;22.70;50.00
48551;DHT22;34397;51.176;6.738;2023-08-31T12:16:34;22.50;51.20
48551;DHT22;34397;51.176;6.738;2023-08-31T12:19:18;22.50;50.60
48551;DHT22;34397;51.176;6.738;2023-08-31T12:21:50;22.60;50.90
48551;DHT22;34397;51.176;6.738;2023-08-31T12:24:24;22.60;50.10
48551;DHT22;34397;51.176;6.738;2023-08-31T12:27:02;22.40;50.20
48551;DHT22;34397;51.176;6.738;2023-08-31T12:29:35;22.30;49.60
48551;DHT22;34397;51.176;6.738;2023-08-31T12:32:10;22.50;49.90
48551;DHT22;34397;51.176;6.738;2023-08-31T12:34:44;22.80;48.80
48551;DHT22;34397;51.176;6.738;2023-08-31T12:37:18;23.00;48.50
48551;DHT22;34397;51.176;6.738;2023-08-31T12:39:58;23.30;47.40
48551;DHT22;34397;51.176;6.738;2023-08-31T12:42:34;23.50;46.50
48551;DHT22;34397;51.176;6.738;2023-08-31T12:45:09;23.60;46.20
48551;DHT22;34397;51.176;6.738;2023-08-31T12:47:49;23.80;45.40
48551;DHT22;34397;51.176;6.738;2023-08-31T12:50:22;23.70;45.50
48551;DHT22;34397;51.176;6.738;2023-08-31T12:55:44;23.40;45.30
48551;DHT22;34397;51.176;6.738;2023-08-31T12:58:18;23.20;46.40
48551;DHT22;34397;51.176;6.738;2023-08-31T13:00:52;23.10;46.60
48551;DHT22;34397;51.176;6.738;2023-08-31T13:03:23;23.20;46.50
48551;DHT22;34397;51.176;6.738;2023-08-31T13:06:02;23.30;47.20
48551;DHT22;34397;51.176;6.738;2023-08-31T13:08:41;23.50;47.00
48551;DHT22;34397;51.176;6.738;2023-08-31T13:11:21;23.70;45.20
48551;DHT22;34397;51.176;6.738;2023-08-31T13:14:00;24.00;44.70
48551;DHT22;34397;51.176;6.738;2023-08-31T13:16:35;24.10;44.30
48551;DHT22;34397;51.176;6.738;2023-08-31T13:19:13;24.30;45.00
48551;DHT22;34397;51.176;6.738;2023-08-31T13:21:48;24.70;45.40
48551;DHT22;34397;51.176;6.738;2023-08-31T13:24:20;25.00;44.90
48551;DHT22;34397;51.176;6.738;2023-08-31T13:26:57;25.30;44.90
48551;DHT22;34397;51.176;6.738;2023-08-31T13:29:31;25.50;42.90
48551;DHT22;34397;51.176;6.738;2023-08-31T13:32:05;25.80;40.30
48551;DHT22;34397;51.176;6.738;2023-08-31T13:34:49;25.90;42.80
48551;DHT22;34397;51.176;6.738;2023-08-31T13:37:33;26.10;43.40
48551;DHT22;34397;51.176;6.738;2023-08-31T13:40:09;26.30;41.70
48551;DHT22;34397;51.176;6.738;2023-08-31T13:42:52;26.40;41.40
48551;DHT22;34397;51.176;6.738;2023-08-31T13:45:34;26.30;40.70
48551;DHT22;34397;51.176;6.738;2023-08-31T13:48:14;26.10;42.20
48551;DHT22;34397;51.176;6.738;2023-08-31T13:51:04;26.20;41.50
48551;DHT22;34397;51.176;6.738;2023-08-31T13:53:40;26.30;42.00
48551;DHT22;34397;51.176;6.738;2023-08-31T13:56:15;26.40;41.70
48551;DHT22;34397;51.176;6.738;2023-08-31T13:58:54;26.50;40.70
48551;DHT22;34397;51.176;6.738;2023-08-31T14:01:28;26.50;40.80
48551;DHT22;34397;51.176;6.738;2023-08-31T14:04:01;26.40;41.30
48551;DHT22;34397;51.176;6.738;2023-08-31T14:06:35;26.10;41.30
48551;DHT22;34397;51.176;6.738;2023-08-31T14:09:12;25.90;41.90
48551;DHT22;34397;51.176;6.738;2023-08-31T14:11:48;25.80;42.00
48551;DHT22;34397;51.176;6.738;2023-08-31T14:14:29;25.50;44.10
48551;DHT22;34397;51.176;6.738;2023-08-31T14:17:02;25.40;43.20
48551;DHT22;34397;51.176;6.738;2023-08-31T14:19:37;25.10;41.70
48551;DHT22;34397;51.176;6.738;2023-08-31T14:22:16;25.00;42.30
48551;DHT22;34397;51.176;6.738;2023-08-31T14:24:58;24.90;42.30
48551;DHT22;34397;51.176;6.738;2023-08-31T14:27:31;24.80;41.90
48551;DHT22;34397;51.176;6.738;2023-08-31T14:30:11;24.70;42.40
48551;DHT22;34397;51.176;6.738;2023-08-31T14:32:51;24.50;42.70
48551;DHT22;34397;51.176;6.738;2023-08-31T14:35:35;24.40;43.60
48551;DHT22;34397;51.176;6.738;2023-08-31T14:38:25;24.40;44.60
48551;DHT22;34397;51.176;6.738;2023-08-31T14:41:03;24.50;43.20
48551;DHT22;34397;51.176;6.738;2023-08-31T14:43:37;24.60;42.80
48551;DHT22;34397;51.176;6.738;2023-08-31T14:46:10;24.60;43.10
48551;DHT22;34397;51.176;6.738;2023-08-31T14:48:45;24.40;42.50
48551;DHT22;34397;51.176;6.738;2023-08-31T14:51:18;24.20;42.90
48551;DHT22;34397;51.176;6.738;2023-08-31T14:53:52;23.80;43.60
48551;DHT22;34397;51.176;6.738;2023-08-31T14:56:26;23.60;43.40
48551;DHT22;34397;51.176;6.738;2023-08-31T14:59:16;23.40;43.50
48551;DHT22;34397;51.176;6.738;2023-08-31T15:01:48;23.30;43.60
48551;DHT22;34397;51.176;6.738;2023-08-31T15:04:22;23.10;44.40
48551;DHT22;34397;51.176;6.738;2023-08-31T15:06:57;22.80;44.10
48551;DHT22;34397;51.176;6.738;2023-08-31T15:09:29;22.70;44.40
48551;DHT22;34397;51.176;6.738;2023-08-31T15:12:06;22.60;44.70
48551;DHT22;34397;51.176;6.738;2023-08-31T15:14:47;22.50;44.90
48551;DHT22;34397;51.176;6.738;2023-08-31T15:17:35;22.40;45.40
48551;DHT22;34397;51.176;6.738;2023-08-31T15:20:09;22.30;45.40
48551;DHT22;34397;51.176;6.738;2023-08-31T15:22:50;22.20;45.60
48551;DHT22;34397;51.176;6.738;2023-08-31T15:25:26;22.20;46.00
48551;DHT22;34397;51.176;6.738;2023-08-31T15:28:10;22.10;46.30
48551;DHT22;34397;51.176;6.738;2023-08-31T15:30:45;22.10;46.80
48551;DHT22;34397;51.176;6.738;2023-08-31T15:33:19;22.00;46.90
48551;DHT22;34397;51.176;6.738;2023-08-31T15:36:01;21.90;47.70
48551;DHT22;34397;51.176;6.738;2023-08-31T15:38:45;21.90;47.40
48551;DHT22;34397;51.176;6.738;2023-08-31T15:41:23;21.80;47.30
48551;DHT22;34397;51.176;6.738;2023-08-31T15:44:00;21.80;47.60
48551;DHT22;34397;51.176;6.738;2023-08-31T15:46:33;21.70;47.70
48551;DHT22;34397;51.176;6.738;2023-08-31T15:49:14;21.70;47.90
48551;DHT22;34397;51.176;6.738;2023-08-31T15:51:46;21.60;48.20
48551;DHT22;34397;51.176;6.738;2023-08-31T15:54:23;21.60;48.30
48551;DHT22;34397;51.176;6.738;2023-08-31T15:56:55;21.50;48.20
48551;DHT22;34397;51.176;6.738;2023-08-31T15:59:29;21.50;48.40
48551;DHT22;34397;51.176;6.738;2023-08-31T16:02:06;21.50;48.80
48551;DHT22;34397;51.176;6.738;2023-08-31T16:04:40;21.50;49.70
48551;DHT22;34397;51.176;6.738;2023-08-31T16:07:17;21.50;49.30
48551;DHT22;34397;51.176;6.738;2023-08-31T16:09:53;21.50;52.90
48551;DHT22;34397;51.176;6.738;2023-08-31T16:12:25;21.50;50.90
48551;DHT22;34397;51.176;6.738;2023-08-31T16:14:58;21.50;51.00
48551;DHT22;34397;51.176;6.738;2023-08-31T16:17:30;21.50;50.60
48551;DHT22;34397;51.176;6.738;2023-08-31T16:20:02;21.60;51.90
48551;DHT22;34397;51.176;6.738;2023-08-31T16:22:38;21.60;50.70
48551;DHT22;34397;51.176;6.738;2023-08-31T16:25:15;21.60;50.80
48551;DHT22;34397;51.176;6.738;2023-08-31T16:27:48;21.60;50.70